Time;durP1;ratioP1;P1;durP2;ratioP2;P2;SDS_P1;SDS_P2;PMS_P1;PMS_P2;Temp;Humidity;BMP_temperature;BMP_pressure;BME280_temperature;BME280_humidity;BME280_pressure;Samples;Min_cycle;Max_cycle;Signal;HPM_P1;HPM_P2
2023/01/30 00:00:20;;;;;;;17.93;9.47;;;-2.70;99.90;;;;;;5127657;28;20335;-58
2023/01/30 00:02:54;;;;;;;18.40;9.27;;;-2.40;99.90;;;;;;5137481;28;20042;-57
2023/01/30 00:05:25;;;;;;;18.50;9.85;;;-2.50;99.90;;;;;;5129369;28;20050;-59
2023/01/30 00:08:00;;;;;;;26.17;11.88;;;-2.40;99.90;;;;;;5134285;28;20038;-57
2023/01/30 00:10:32;;;;;;;20.38;9.20;;;-2.30;99.90;;;;;;5123297;28;20031;-58
2023/01/30 00:13:03;;;;;;;20.30;12.40;;;-2.20;99.90;;;;;;5124478;28;20038;-59
2023/01/30 00:15:34;;;;;;;11.68;7.20;;;-2.20;99.90;;;;;;5132625;28;20038;-59
2023/01/30 00:18:09;;;;;;;16.90;10.03;;;-2.20;99.90;;;;;;5141713;28;20034;-58
2023/01/30 00:20:40;;;;;;;19.13;9.60;;;-1.90;99.90;;;;;;5144408;28;20053;-58
2023/01/30 00:23:11;;;;;;;18.37;10.67;;;-1.90;99.90;;;;;;5125821;28;20449;-58
2023/01/30 00:25:44;;;;;;;17.57;8.50;;;-2.00;99.90;;;;;;5117929;28;20525;-58
2023/01/30 00:28:16;;;;;;;15.15;7.43;;;-1.90;99.90;;;;;;5146723;28;20042;-57
2023/01/30 00:30:52;;;;;;;12.07;6.78;;;-1.70;99.90;;;;;;5131740;28;20042;-60
2023/01/30 00:33:25;;;;;;;15.27;8.55;;;-1.30;99.90;;;;;;5137429;28;20034;-57
2023/01/30 00:36:00;;;;;;;16.85;9.35;;;-1.10;99.90;;;;;;5139685;28;20042;-57
2023/01/30 00:38:32;;;;;;;15.55;7.28;;;-1.00;99.90;;;;;;5132742;28;20491;-58
2023/01/30 00:41:04;;;;;;;14.70;7.43;;;-0.90;99.90;;;;;;5148266;28;20045;-59
2023/01/30 00:47:04;;;;;;;10.90;6.60;;;-0.80;99.90;;;;;;5131719;28;20038;-57
2023/01/30 00:49:25;;;;;;;15.95;8.45;;;-0.80;99.90;;;;;;5132740;28;20262;-58
2023/01/30 00:51:56;;;;;;;12.43;6.78;;;-0.70;99.90;;;;;;5135127;28;20027;-62
2023/01/30 00:54:30;;;;;;;16.70;8.60;;;-0.60;99.90;;;;;;5147166;28;20049;-59
2023/01/30 00:57:06;;;;;;;11.43;7.43;;;-0.60;99.90;;;;;;5137638;28;20477;-58
2023/01/30 00:59:37;;;;;;;13.32;7.22;;;-0.60;99.90;;;;;;5134447;28;20397;-62
2023/01/30 01:02:09;;;;;;;14.45;7.55;;;-0.50;99.90;;;;;;5202236;23;20058;-58
2023/01/30 01:04:47;;;;;;;13.07;8.13;;;-0.40;99.90;;;;;;5143802;28;20042;-57
2023/01/30 01:07:18;;;;;;;11.38;6.43;;;-0.40;99.90;;;;;;5139554;28;20473;-58
2023/01/30 01:09:50;;;;;;;12.90;6.93;;;-0.30;99.90;;;;;;5145528;28;20084;-57
2023/01/30 01:12:22;;;;;;;12.82;8.02;;;-0.30;99.90;;;;;;5147954;28;20452;-57
2023/01/30 01:14:53;;;;;;;14.43;7.78;;;-0.40;99.90;;;;;;5145755;28;20034;-57
2023/01/30 01:17:25;;;;;;;18.48;8.93;;;-0.30;99.90;;;;;;5152055;28;20034;-58
2023/01/30 01:19:56;;;;;;;17.23;7.80;;;-0.40;99.90;;;;;;5151737;28;20192;-58
2023/01/30 01:22:27;;;;;;;13.80;5.30;;;-0.50;99.90;;;;;;5160364;28;20042;-57
2023/01/30 01:24:58;;;;;;;16.13;8.23;;;-0.40;99.90;;;;;;5155328;28;20038;-57
2023/01/30 01:27:30;;;;;;;15.27;8.23;;;-0.40;99.90;;;;;;5139558;28;20042;-58
2023/01/30 01:30:01;;;;;;;11.80;6.72;;;-0.30;99.90;;;;;;5139943;28;20034;-57
2023/01/30 01:32:33;;;;;;;18.65;8.40;;;-0.30;99.90;;;;;;5138838;28;20053;-58
2023/01/30 01:35:05;;;;;;;10.93;6.18;;;-0.30;99.90;;;;;;5151985;28;20023;-59
2023/01/30 01:37:37;;;;;;;12.23;7.03;;;-0.40;99.90;;;;;;5152047;28;20201;-58
2023/01/30 01:43:20;;;;;;;11.50;6.32;;;-0.30;99.90;;;;;;5149623;28;20031;-58
2023/01/30 01:45:57;;;;;;;14.70;7.15;;;-0.30;99.90;;;;;;5148143;28;20156;-58
2023/01/30 01:48:33;;;;;;;15.93;7.05;;;-0.30;99.90;;;;;;5154036;28;20030;-57
2023/01/30 01:51:15;;;;;;;11.55;6.03;;;-0.30;99.90;;;;;;5169428;28;20529;-58
2023/01/30 01:53:53;;;;;;;11.98;5.93;;;-0.30;99.90;;;;;;5146140;28;20044;-58
2023/01/30 01:56:25;;;;;;;11.00;5.85;;;-0.20;99.90;;;;;;5148021;28;20468;-57
2023/01/30 01:59:02;;;;;;;11.10;7.82;;;-0.30;99.90;;;;;;5154445;28;20038;-58
2023/01/30 02:01:36;;;;;;;12.23;6.43;;;-0.20;99.90;;;;;;5162150;28;20054;-58
2023/01/30 02:04:09;;;;;;;;;;;-0.10;99.90;;;;;;5131352;28;20045;-58
2023/01/30 02:06:41;;;;;;;9.98;5.68;;;-0.10;99.90;;;;;;5113365;28;20133;-57
2023/01/30 02:09:15;;;;;;;11.30;6.35;;;0.00;99.90;;;;;;5138264;28;20720;-57
2023/01/30 02:11:59;;;;;;;9.02;5.95;;;0.00;99.90;;;;;;5165036;28;20034;-58
2023/01/30 02:14:35;;;;;;;9.23;5.68;;;0.00;99.90;;;;;;5153428;28;20040;-59
2023/01/30 02:17:07;;;;;;;14.23;6.22;;;-0.10;99.90;;;;;;5136000;28;20037;-61
2023/01/30 02:19:59;;;;;;;11.13;7.45;;;-0.10;99.90;;;;;;5151370;28;20038;-58
2023/01/30 02:22:51;;;;;;;16.83;7.57;;;-0.10;99.90;;;;;;5164462;28;20038;-58
2023/01/30 02:25:43;;;;;;;9.73;5.82;;;-0.20;99.90;;;;;;5170871;28;20025;-61
2023/01/30 02:28:41;;;;;;;12.98;6.13;;;-0.20;99.90;;;;;;5151223;28;20018;-57
2023/01/30 02:31:32;;;;;;;9.50;5.75;;;-0.10;99.90;;;;;;5147044;28;20037;-58
2023/01/30 02:34:38;;;;;;;14.52;6.30;;;-0.10;99.90;;;;;;5151488;28;20019;-59
2023/01/30 02:37:27;;;;;;;11.05;6.72;;;-0.20;99.90;;;;;;5092679;29;20291;-58
2023/01/30 02:40:13;;;;;;;10.15;5.72;;;-0.20;99.90;;;;;;5093331;28;20047;-57
2023/01/30 02:42:49;;;;;;;11.20;6.57;;;-0.20;99.90;;;;;;5128806;28;20107;-58
2023/01/30 02:45:42;;;;;;;14.40;7.72;;;-0.10;99.90;;;;;;5126068;28;20051;-58
2023/01/30 02:48:22;;;;;;;10.98;6.22;;;-0.30;99.90;;;;;;5090511;28;20038;-58
2023/01/30 02:51:12;;;;;;;10.65;6.10;;;-0.40;99.90;;;;;;5097588;28;20077;-58
2023/01/30 02:53:46;;;;;;;8.98;5.80;;;-0.40;99.90;;;;;;5107813;29;20031;-58
2023/01/30 02:56:17;;;;;;;;;;;-0.40;99.90;;;;;;5107638;29;20039;-58
2023/01/30 02:58:57;;;;;;;13.82;6.80;;;-0.60;99.90;;;;;;5088363;29;19910;-58
2023/01/30 03:01:37;;;;;;;18.92;8.30;;;-0.60;99.90;;;;;;5097069;28;20038;-57
2023/01/30 03:04:30;;;;;;;12.18;6.90;;;-0.70;99.90;;;;;;5085155;29;20106;-59
2023/01/30 03:07:19;;;;;;;12.27;7.00;;;-0.90;99.90;;;;;;5080906;29;20189;-58
2023/01/30 03:10:05;;;;;;;13.27;7.80;;;-0.80;99.90;;;;;;5090431;29;20530;-58
2023/01/30 03:13:03;;;;;;;12.70;6.55;;;-0.90;99.90;;;;;;5117712;28;20454;-58
2023/01/30 03:15:44;;;;;;;14.38;7.70;;;-0.80;99.90;;;;;;5144610;28;20546;-59
2023/01/30 03:18:21;;;;;;;15.50;7.25;;;-0.80;99.90;;;;;;5128335;28;20030;-58
2023/01/30 03:20:53;;;;;;;15.93;6.57;;;-0.90;99.90;;;;;;5154010;28;20616;-59
2023/01/30 03:23:30;;;;;;;14.20;7.47;;;-1.00;99.90;;;;;;5133948;28;20722;-59
2023/01/30 03:26:07;;;;;;;13.75;7.47;;;-0.90;99.90;;;;;;5148470;28;20034;-58
2023/01/30 03:28:41;;;;;;;13.85;7.70;;;-0.80;99.90;;;;;;5115486;28;20523;-59
2023/01/30 03:31:15;;;;;;;12.88;6.97;;;-0.80;99.90;;;;;;5153869;28;20032;-60
2023/01/30 03:33:46;;;;;;;9.95;6.45;;;-0.90;99.90;;;;;;5148919;28;20499;-60
2023/01/30 03:36:20;;;;;;;15.43;7.10;;;-0.90;99.90;;;;;;5143586;28;20034;-59
2023/01/30 03:38:51;;;;;;;11.75;5.97;;;-0.80;99.90;;;;;;5147677;28;20519;-60
2023/01/30 03:41:25;;;;;;;11.23;6.57;;;-0.80;99.90;;;;;;5140647;28;20045;-59
2023/01/30 03:43:56;;;;;;;17.65;8.00;;;-0.90;99.90;;;;;;5155325;28;20468;-59
2023/01/30 03:46:27;;;;;;;16.17;8.27;;;-0.90;99.90;;;;;;5131456;28;20045;-59
2023/01/30 03:48:58;;;;;;;15.15;7.60;;;-0.90;99.90;;;;;;5133982;28;20030;-61
2023/01/30 03:51:31;;;;;;;13.88;7.47;;;-0.90;99.90;;;;;;5137318;28;20038;-59
2023/01/30 03:54:02;;;;;;;13.50;7.78;;;-0.90;99.90;;;;;;5130967;28;20579;-59
2023/01/30 03:56:33;;;;;;;14.45;7.15;;;-1.00;99.90;;;;;;5121945;28;20045;-60
2023/01/30 03:59:05;;;;;;;15.40;7.72;;;-1.10;99.90;;;;;;5133985;28;20618;-60
2023/01/30 04:01:40;;;;;;;13.02;6.65;;;-1.10;99.90;;;;;;5135375;28;20042;-58
2023/01/30 04:04:14;;;;;;;12.18;7.13;;;-1.30;99.90;;;;;;5111609;28;20041;-60
2023/01/30 04:06:47;;;;;;;15.75;7.88;;;-1.30;99.90;;;;;;5151034;28;20044;-60
2023/01/30 04:09:18;;;;;;;15.80;7.83;;;-1.40;99.90;;;;;;5153791;28;20026;-59
2023/01/30 04:11:50;;;;;;;12.85;6.80;;;-1.30;99.90;;;;;;5157730;28;20611;-60
2023/01/30 04:14:21;;;;;;;11.43;6.70;;;-1.10;99.90;;;;;;5138153;28;20345;-59
2023/01/30 04:16:52;;;;;;;14.82;6.55;;;-1.10;99.90;;;;;;5171946;28;20033;-59
2023/01/30 04:19:24;;;;;;;13.48;6.68;;;-1.20;99.90;;;;;;5175053;28;20257;-57
2023/01/30 04:21:55;;;;;;;10.38;6.20;;;-1.10;99.90;;;;;;5147080;28;20037;-58
2023/01/30 04:24:26;;;;;;;12.60;6.63;;;-1.00;99.90;;;;;;5171967;28;20196;-61
2023/01/30 04:26:57;;;;;;;10.73;7.07;;;-1.00;99.90;;;;;;5170884;28;20042;-60
2023/01/30 04:29:32;;;;;;;13.68;7.45;;;-1.00;99.90;;;;;;5134827;28;20033;-60
2023/01/30 04:32:06;;;;;;;12.68;6.38;;;-1.10;99.90;;;;;;5134835;28;20046;-61
2023/01/30 04:34:37;;;;;;;11.80;6.20;;;-1.20;99.90;;;;;;5161453;28;20031;-60
2023/01/30 04:37:08;;;;;;;12.30;6.93;;;-1.30;99.90;;;;;;5132403;28;20037;-59
2023/01/30 04:39:39;;;;;;;14.07;7.13;;;-1.40;99.90;;;;;;5131291;28;20049;-62
2023/01/30 04:42:11;;;;;;;16.17;8.18;;;-1.50;99.90;;;;;;5152095;28;20026;-60
2023/01/30 04:44:44;;;;;;;16.15;7.65;;;-1.70;99.90;;;;;;5123404;28;20044;-60
2023/01/30 04:47:16;;;;;;;12.93;7.30;;;-1.80;99.90;;;;;;5171487;28;20037;-59
2023/01/30 04:49:47;;;;;;;15.00;7.43;;;-1.90;99.90;;;;;;5164290;28;20034;-59
2023/01/30 04:52:18;;;;;;;14.02;7.78;;;-2.10;99.90;;;;;;5135679;28;20050;-61
2023/01/30 04:54:52;;;;;;;13.07;7.50;;;-2.10;99.90;;;;;;5172902;28;20057;-61
2023/01/30 04:57:23;;;;;;;13.77;7.65;;;-2.10;99.90;;;;;;5137670;28;20033;-59
2023/01/30 04:59:54;;;;;;;13.10;7.05;;;-1.80;99.90;;;;;;5170329;28;20025;-61
2023/01/30 05:02:25;;;;;;;14.98;7.10;;;-1.70;99.90;;;;;;5138824;28;20046;-59
2023/01/30 05:04:57;;;;;;;16.15;8.02;;;-1.50;99.90;;;;;;5146473;28;20583;-59
2023/01/30 05:07:30;;;;;;;12.25;6.32;;;-1.40;99.90;;;;;;5162166;28;20136;-59
2023/01/30 05:10:01;;;;;;;12.32;6.45;;;-0.90;99.90;;;;;;5156883;28;20052;-60
2023/01/30 05:12:33;;;;;;;15.23;6.65;;;-0.80;99.90;;;;;;5167488;28;20034;-62
2023/01/30 05:15:05;;;;;;;9.85;6.25;;;-0.60;99.90;;;;;;5130710;28;20497;-60
2023/01/30 05:17:37;;;;;;;10.40;4.97;;;-0.10;99.90;;;;;;5149921;28;20052;-59
2023/01/30 05:20:12;;;;;;;14.32;7.45;;;0.10;99.90;;;;;;5150507;28;20037;-60
2023/01/30 05:22:49;;;;;;;11.80;6.47;;;0.10;99.90;;;;;;5130747;28;20523;-59
2023/01/30 05:25:22;;;;;;;10.82;6.10;;;0.20;99.90;;;;;;5172718;28;20018;-59
2023/01/30 05:27:56;;;;;;;13.50;6.22;;;0.20;99.90;;;;;;5128060;28;20052;-58
2023/01/30 05:30:28;;;;;;;9.48;5.82;;;0.30;99.90;;;;;;5155513;28;20030;-59
2023/01/30 05:33:04;;;;;;;11.45;6.13;;;0.40;99.90;;;;;;5157398;28;20045;-60
2023/01/30 05:35:36;;;;;;;11.05;6.40;;;0.40;99.90;;;;;;5152049;28;20022;-58
2023/01/30 05:38:09;;;;;;;13.15;7.00;;;0.50;99.90;;;;;;5152427;28;20044;-59
2023/01/30 05:40:41;;;;;;;13.30;7.57;;;0.60;97.70;;;;;;5133980;28;20478;-60
2023/01/30 05:43:15;;;;;;;10.73;6.78;;;0.50;99.90;;;;;;5135726;28;20267;-60
2023/01/30 05:45:52;;;;;;;10.45;6.30;;;0.50;99.90;;;;;;5144600;28;20031;-61
2023/01/30 05:48:24;;;;;;;14.85;7.47;;;0.50;99.90;;;;;;5131123;28;20037;-60
2023/01/30 05:50:57;;;;;;;12.20;6.18;;;0.50;99.90;;;;;;5147790;28;20046;-60
2023/01/30 05:53:34;;;;;;;9.88;5.75;;;0.50;99.90;;;;;;5163526;28;20381;-60
2023/01/30 05:56:08;;;;;;;12.05;5.55;;;0.50;99.90;;;;;;5170865;28;20444;-60
2023/01/30 05:58:39;;;;;;;9.40;4.53;;;0.60;98.30;;;;;;5170290;28;20044;-60
2023/01/30 06:01:13;;;;;;;11.00;5.60;;;0.70;46.80;;;;;;5160600;28;20042;-60
2023/01/30 06:03:46;;;;;;;10.50;6.00;;;0.80;37.80;;;;;;5131639;28;20054;-60
2023/01/30 06:06:20;;;;;;;13.95;5.78;;;0.80;41.00;;;;;;5154432;28;20057;-60
2023/01/30 06:08:55;;;;;;;8.18;5.47;;;0.90;40.10;;;;;;5149426;28;20041;-60
2023/01/30 06:11:29;;;;;;;10.77;5.90;;;0.90;64.10;;;;;;5144360;28;20563;-60
2023/01/30 06:14:00;;;;;;;7.55;4.88;;;0.90;57.60;;;;;;5146646;28;20038;-60
2023/01/30 06:16:33;;;;;;;11.43;5.68;;;0.90;61.60;;;;;;5137327;28;20030;-60
2023/01/30 06:19:07;;;;;;;9.70;5.85;;;0.90;39.20;;;;;;5134477;28;20045;-61
2023/01/30 06:21:38;;;;;;;7.90;5.18;;;0.90;54.70;;;;;;5154198;28;20041;-60
2023/01/30 06:24:12;;;;;;;8.70;5.57;;;0.80;55.00;;;;;;5166344;28;20030;-60
2023/01/30 06:26:44;;;;;;;9.07;4.18;;;0.90;35.60;;;;;;5139299;28;20068;-59
2023/01/30 06:29:15;;;;;;;9.13;4.38;;;1.00;22.50;;;;;;5153902;28;20033;-60
2023/01/30 06:31:46;;;;;;;9.30;4.90;;;1.20;1.00;;;;;;5121834;28;20030;-61
2023/01/30 06:34:17;;;;;;;10.77;5.13;;;1.20;1.00;;;;;;5144116;28;20038;-59
2023/01/30 06:36:48;;;;;;;11.77;5.00;;;1.20;1.00;;;;;;5152714;28;20048;-61
2023/01/30 06:39:20;;;;;;;9.88;5.60;;;1.10;1.00;;;;;;5169116;28;20033;-61
2023/01/30 06:41:53;;;;;;;7.68;4.50;;;1.10;41.90;;;;;;5163715;28;20318;-59
2023/01/30 06:44:32;;;;;;;7.97;4.25;;;1.10;1.00;;;;;;5147068;28;20077;-61
2023/01/30 06:47:05;;;;;;;7.80;4.78;;;1.10;23.30;;;;;;5127353;28;20058;-58
2023/01/30 06:49:39;;;;;;;10.30;5.00;;;1.10;38.90;;;;;;5131248;28;20030;-59
2023/01/30 06:52:10;;;;;;;8.85;4.32;;;1.10;1.00;;;;;;5158872;28;20037;-60
2023/01/30 06:54:42;;;;;;;6.45;3.97;;;1.10;12.90;;;;;;5150547;28;20690;-60
2023/01/30 06:57:18;;;;;;;6.70;4.38;;;1.20;37.50;;;;;;5135045;28;20034;-60
2023/01/30 06:59:49;;;;;;;8.50;4.90;;;1.20;19.20;;;;;;5121032;28;20353;-59
2023/01/30 07:02:21;;;;;;;12.93;4.97;;;1.30;66.90;;;;;;5136747;28;20037;-61
2023/01/30 07:04:52;;;;;;;7.78;4.28;;;1.30;99.90;;;;;;5112437;28;20768;-62
2023/01/30 07:07:23;;;;;;;7.53;4.68;;;1.40;99.90;;;;;;5123667;28;20038;-59
2023/01/30 07:09:56;;;;;;;13.15;4.07;;;1.40;99.90;;;;;;5149072;28;20046;-59
2023/01/30 07:12:27;;;;;;;7.60;4.57;;;1.50;99.90;;;;;;5119861;28;20038;-59
2023/01/30 07:14:59;;;;;;;5.40;3.42;;;1.50;99.90;;;;;;5140183;28;20042;-58
2023/01/30 07:17:30;;;;;;;9.75;4.28;;;1.50;99.90;;;;;;5147853;28;20026;-59
2023/01/30 07:20:03;;;;;;;10.18;3.95;;;1.60;99.90;;;;;;5131411;28;20038;-59
2023/01/30 07:22:35;;;;;;;9.02;3.00;;;1.60;99.90;;;;;;5118089;28;20039;-59
2023/01/30 07:25:06;;;;;;;8.55;3.33;;;1.70;99.90;;;;;;5133407;28;20038;-59
2023/01/30 07:27:37;;;;;;;6.20;3.47;;;1.70;99.90;;;;;;5122982;28;20034;-58
2023/01/30 07:30:09;;;;;;;7.70;4.10;;;1.80;99.90;;;;;;5141551;28;20034;-58
2023/01/30 07:32:43;;;;;;;6.30;3.97;;;1.80;99.90;;;;;;5156328;28;20029;-61
2023/01/30 07:35:14;;;;;;;5.15;3.42;;;1.90;99.90;;;;;;5147836;28;20310;-59
2023/01/30 07:37:47;;;;;;;5.55;3.20;;;1.90;99.90;;;;;;5130266;28;20283;-59
2023/01/30 07:40:22;;;;;;;5.88;3.88;;;2.00;99.90;;;;;;5128568;28;20031;-58
2023/01/30 07:43:08;;;;;;;5.10;3.30;;;2.10;99.90;;;;;;5144175;28;20177;-59
2023/01/30 07:45:44;;;;;;;12.52;4.13;;;2.10;99.90;;;;;;5124871;28;20238;-58
2023/01/30 07:48:18;;;;;;;12.77;4.40;;;2.20;99.90;;;;;;5147397;28;20040;-58
2023/01/30 07:50:55;;;;;;;7.83;4.60;;;2.30;99.90;;;;;;5147202;28;20050;-59
2023/01/30 07:53:26;;;;;;;9.13;3.85;;;2.30;99.90;;;;;;5141378;28;20034;-58
2023/01/30 07:55:58;;;;;;;5.78;3.70;;;2.30;99.90;;;;;;5121951;28;20227;-59
2023/01/30 07:58:34;;;;;;;5.35;3.45;;;2.40;99.90;;;;;;5155853;28;20022;-59
2023/01/30 08:01:08;;;;;;;7.63;4.22;;;2.40;99.90;;;;;;5129104;28;20148;-58
2023/01/30 08:03:39;;;;;;;5.82;4.30;;;2.50;99.90;;;;;;5142248;28;20333;-58
2023/01/30 08:06:13;;;;;;;8.45;4.90;;;2.50;99.90;;;;;;5149260;28;20294;-58
2023/01/30 08:08:45;;;;;;;7.35;4.32;;;2.50;99.90;;;;;;5148788;28;20242;-59
2023/01/30 08:11:17;;;;;;;10.13;4.03;;;2.50;99.90;;;;;;5136239;28;20033;-59
2023/01/30 08:13:48;;;;;;;9.18;4.47;;;2.50;99.90;;;;;;5144378;28;20056;-59
2023/01/30 08:16:19;;;;;;;8.25;3.75;;;2.50;99.90;;;;;;5146148;28;20234;-59
2023/01/30 08:18:56;;;;;;;7.07;3.42;;;2.40;99.90;;;;;;5131728;28;20272;-59
2023/01/30 08:21:29;;;;;;;5.70;4.00;;;2.40;99.90;;;;;;5148518;28;20149;-59
2023/01/30 08:24:06;;;;;;;7.87;4.33;;;2.50;99.90;;;;;;5148678;28;20341;-58
2023/01/30 08:26:37;;;;;;;7.85;3.85;;;2.50;99.90;;;;;;5139428;28;20246;-58
2023/01/30 08:29:08;;;;;;;5.18;3.58;;;2.50;99.90;;;;;;5149156;28;20268;-59
2023/01/30 08:31:39;;;;;;;7.15;4.00;;;2.50;99.90;;;;;;5143914;28;20249;-58
2023/01/30 08:34:12;;;;;;;5.70;3.60;;;2.60;99.90;;;;;;5132852;28;20022;-59
2023/01/30 08:36:45;;;;;;;6.20;3.85;;;2.60;99.90;;;;;;5145842;28;20202;-59
2023/01/30 08:39:16;;;;;;;6.38;3.83;;;2.80;99.90;;;;;;5149687;28;20253;-59
2023/01/30 08:42:26;;;;;;;6.38;3.97;;;3.00;99.90;;;;;;5151832;28;20448;-59
2023/01/30 08:44:57;;;;;;;4.28;2.80;;;3.20;99.90;;;;;;5151050;28;20315;-59
2023/01/30 08:47:30;;;;;;;5.45;3.38;;;3.20;99.90;;;;;;5144211;28;20299;-59
2023/01/30 08:50:02;;;;;;;8.02;4.93;;;3.30;99.90;;;;;;5131590;28;20335;-59
2023/01/30 08:52:33;;;;;;;11.38;3.55;;;3.40;99.90;;;;;;5120995;28;20050;-59
2023/01/30 08:55:05;;;;;;;9.02;3.92;;;3.40;99.90;;;;;;5113817;28;20035;-59
2023/01/30 08:57:36;;;;;;;8.38;3.58;;;3.60;99.90;;;;;;5149329;28;20034;-59
2023/01/30 09:00:11;;;;;;;5.78;3.45;;;3.80;99.90;;;;;;5148286;28;20063;-61
2023/01/30 09:02:45;;;;;;;5.07;3.65;;;3.90;99.90;;;;;;5149708;28;20167;-60
2023/01/30 09:05:16;;;;;;;5.88;3.42;;;4.20;99.90;;;;;;5132078;28;20174;-58
2023/01/30 09:07:47;;;;;;;4.75;2.92;;;4.10;99.90;;;;;;5120307;28;20628;-59
2023/01/30 09:10:18;;;;;;;4.47;3.03;;;4.10;99.90;;;;;;5130821;28;20209;-60
2023/01/30 09:12:49;;;;;;;3.17;2.75;;;4.10;99.90;;;;;;5150360;28;20034;-60
2023/01/30 09:15:21;;;;;;;7.05;2.88;;;3.90;99.90;;;;;;5148964;28;20022;-59
2023/01/30 09:17:54;;;;;;;4.75;3.22;;;3.90;99.90;;;;;;5149423;28;20026;-60
2023/01/30 09:20:25;;;;;;;4.95;3.00;;;3.90;99.90;;;;;;5116781;28;20026;-60
2023/01/30 09:22:56;;;;;;;3.05;2.15;;;3.80;99.90;;;;;;5130962;28;20310;-60
2023/01/30 09:25:27;;;;;;;4.45;2.38;;;3.80;99.90;;;;;;5116328;28;20319;-59
2023/01/30 09:28:01;;;;;;;4.63;2.88;;;3.80;99.90;;;;;;5115441;28;20041;-61
2023/01/30 09:30:32;;;;;;;7.20;4.10;;;3.80;99.90;;;;;;5147800;28;20030;-60
2023/01/30 09:33:04;;;;;;;5.18;3.17;;;3.80;99.90;;;;;;5124222;28;20323;-61
2023/01/30 09:35:35;;;;;;;7.55;4.35;;;3.90;99.90;;;;;;5147670;28;20026;-60
2023/01/30 09:38:09;;;;;;;10.40;3.63;;;4.00;99.90;;;;;;5128605;28;20353;-60
2023/01/30 09:40:52;;;;;;;7.15;3.97;;;4.00;99.90;;;;;;5115063;28;20045;-60
2023/01/30 09:43:48;;;;;;;4.57;3.28;;;4.00;99.90;;;;;;5136389;28;20377;-60
2023/01/30 09:46:43;;;;;;;6.20;3.53;;;3.80;99.90;;;;;;5148137;28;20025;-60
2023/01/30 09:49:27;;;;;;;3.90;2.40;;;3.60;99.90;;;;;;5132979;28;20022;-61
2023/01/30 09:52:15;;;;;;;5.18;3.08;;;3.50;99.90;;;;;;5122893;28;20525;-61
2023/01/30 09:54:46;;;;;;;5.75;3.45;;;3.50;99.90;;;;;;5131950;28;20026;-60
2023/01/30 09:57:22;;;;;;;6.32;3.28;;;3.50;99.90;;;;;;5149041;28;20039;-60
2023/01/30 10:00:23;;;;;;;5.03;2.65;;;3.50;99.90;;;;;;5157354;28;20335;-60
2023/01/30 10:03:20;;;;;;;4.18;2.80;;;3.70;99.90;;;;;;5149331;28;20327;-59
2023/01/30 10:06:04;;;;;;;5.32;2.17;;;3.90;99.90;;;;;;5146201;28;20334;-61
2023/01/30 10:08:49;;;;;;;3.83;2.28;;;4.10;99.90;;;;;;5162958;28;20021;-60
2023/01/30 10:11:39;;;;;;;;;;;4.40;99.90;;;;;;5171184;28;20045;-61
2023/01/30 10:14:40;;;;;;;4.80;3.05;;;4.70;99.90;;;;;;5150263;28;20216;-61
2023/01/30 10:17:29;;;;;;;4.82;2.42;;;4.90;99.90;;;;;;5048666;29;20252;-61
2023/01/30 10:20:19;;;;;;;5.72;2.80;;;5.00;99.90;;;;;;5068039;29;20382;-64
2023/01/30 10:23:13;;;;;;;3.63;1.67;;;5.50;99.90;;;;;;5145541;28;20031;-62
2023/01/30 10:25:56;;;;;;;3.50;2.53;;;5.30;99.90;;;;;;5133346;28;20022;-62
2023/01/30 10:28:46;;;;;;;3.20;2.38;;;5.00;99.90;;;;;;5132169;28;20340;-63
2023/01/30 10:31:21;;;;;;;4.57;2.10;;;4.80;99.90;;;;;;5120366;28;20026;-65
2023/01/30 10:34:15;;;;;;;2.70;1.65;;;4.80;99.90;;;;;;5132883;28;20030;-62
2023/01/30 10:37:12;;;;;;;2.60;1.70;;;4.70;99.90;;;;;;5154228;28;20206;-63
2023/01/30 10:40:02;;;;;;;1.92;1.73;;;4.60;99.90;;;;;;5131263;28;20037;-64
2023/01/30 10:42:51;;;;;;;2.63;1.95;;;4.40;99.90;;;;;;5148420;28;20034;-63
2023/01/30 10:45:48;;;;;;;1.25;1.13;;;4.30;99.90;;;;;;5114116;28;20452;-66
2023/01/30 10:48:41;;;;;;;4.65;2.05;;;4.30;99.90;;;;;;5148807;28;20242;-64
2023/01/30 10:51:15;;;;;;;3.20;1.80;;;4.40;99.90;;;;;;5147755;28;20034;-62
2023/01/30 10:53:58;;;;;;;1.48;1.25;;;4.50;99.90;;;;;;5115165;28;20311;-62
2023/01/30 10:57:02;;;;;;;1.55;1.40;;;4.50;99.90;;;;;;5144303;28;20034;-64
2023/01/30 10:59:43;;;;;;;2.70;1.27;;;5.60;99.90;;;;;;5111338;28;20314;-65
2023/01/30 11:02:26;;;;;;;3.45;1.30;;;6.20;99.90;;;;;;5142318;28;20042;-64
2023/01/30 11:04:59;;;;;;;1.35;1.23;;;6.30;99.90;;;;;;5121476;28;20038;-64
2023/01/30 11:07:33;;;;;;;1.88;1.40;;;6.40;99.90;;;;;;5138461;28;20195;-65
2023/01/30 11:10:15;;;;;;;1.98;1.23;;;6.40;99.90;;;;;;5129729;28;20037;-64
2023/01/30 11:12:46;;;;;;;2.22;1.55;;;6.60;99.90;;;;;;5130390;28;20516;-67
2023/01/30 11:15:18;;;;;;;3.22;1.67;;;6.70;99.90;;;;;;5127550;28;20334;-64
2023/01/30 11:17:50;;;;;;;1.58;1.20;;;6.60;99.90;;;;;;5123059;28;20233;-64
2023/01/30 11:20:25;;;;;;;1.63;1.17;;;6.60;99.90;;;;;;5148872;28;20022;-64
2023/01/30 11:23:05;;;;;;;1.75;1.45;;;6.70;99.90;;;;;;5146873;28;20265;-66
2023/01/30 11:25:50;;;;;;;1.77;1.23;;;6.90;99.90;;;;;;5146766;28;20230;-65
2023/01/30 11:28:25;;;;;;;1.38;1.20;;;6.70;99.90;;;;;;5141557;28;20129;-66
2023/01/30 11:31:00;;;;;;;2.58;1.50;;;6.70;99.90;;;;;;5134098;28;20312;-66
2023/01/30 11:33:35;;;;;;;1.50;1.20;;;7.10;99.90;;;;;;5110487;28;20084;-67
2023/01/30 11:36:26;;;;;;;1.10;1.00;;;7.20;99.90;;;;;;5132946;28;20026;-68
2023/01/30 11:39:21;;;;;;;2.00;1.30;;;7.20;99.90;;;;;;5112173;28;20038;-66
2023/01/30 11:41:53;;;;;;;1.67;1.33;;;7.60;99.90;;;;;;5127991;28;20051;-66
2023/01/30 11:44:29;;;;;;;1.00;0.90;;;7.90;99.90;;;;;;5118836;28;20043;-67
2023/01/30 11:47:11;;;;;;;2.38;1.30;;;7.00;99.90;;;;;;5143960;28;20450;-68
2023/01/30 11:49:45;;;;;;;0.93;0.80;;;6.60;99.90;;;;;;5158137;28;20026;-64
2023/01/30 11:52:17;;;;;;;;;;;6.90;99.90;;;;;;5149875;28;20030;-66
2023/01/30 11:54:49;;;;;;;2.78;1.27;;;7.40;99.90;;;;;;5131300;28;19916;-66
2023/01/30 11:57:21;;;;;;;3.20;1.05;;;7.90;99.90;;;;;;5149303;28;20030;-65
2023/01/30 12:00:00;;;;;;;1.38;1.27;;;7.80;99.90;;;;;;5133577;28;20623;-65
2023/01/30 12:02:34;;;;;;;1.40;1.20;;;7.70;99.90;;;;;;5112979;28;20037;-67
2023/01/30 12:05:30;;;;;;;0.88;0.88;;;7.80;99.90;;;;;;5134075;28;20119;-67
2023/01/30 12:08:22;;;;;;;1.40;1.10;;;7.90;99.90;;;;;;5111387;28;20045;-67
2023/01/30 12:11:00;;;;;;;1.13;1.00;;;8.50;99.90;;;;;;5100185;28;20045;-66
2023/01/30 12:13:42;;;;;;;0.82;0.80;;;8.10;99.90;;;;;;5130019;28;20049;-67
2023/01/30 12:16:19;;;;;;;0.55;0.55;;;8.00;99.90;;;;;;5153227;28;20029;-66
2023/01/30 12:19:18;;;;;;;0.85;0.82;;;7.90;99.90;;;;;;5107950;28;20457;-66
2023/01/30 12:22:03;;;;;;;0.77;0.77;;;8.50;99.90;;;;;;5115713;28;20035;-67
2023/01/30 12:24:57;;;;;;;1.45;1.23;;;8.20;99.90;;;;;;5117747;28;20041;-67
2023/01/30 12:28:05;;;;;;;0.98;0.88;;;9.10;99.90;;;;;;5116137;28;20033;-66
2023/01/30 12:30:46;;;;;;;0.90;0.90;;;8.50;99.90;;;;;;5114122;28;20403;-67
2023/01/30 12:33:20;;;;;;;0.85;0.80;;;7.90;99.90;;;;;;5142613;28;20058;-68
2023/01/30 12:36:24;;;;;;;1.27;1.17;;;7.40;99.90;;;;;;5095451;28;20053;-68
2023/01/30 12:39:01;;;;;;;1.33;1.13;;;6.80;99.90;;;;;;5083105;28;20057;-69
2023/01/30 12:41:54;;;;;;;2.20;0.85;;;6.60;99.90;;;;;;5124017;28;20034;-68
2023/01/30 12:44:38;;;;;;;1.25;1.02;;;6.40;99.90;;;;;;5133077;28;20041;-67
2023/01/30 12:47:31;;;;;;;2.33;1.13;;;6.10;99.90;;;;;;5104846;28;20397;-66
2023/01/30 12:50:05;;;;;;;9.07;1.27;;;5.90;99.90;;;;;;5125014;28;20040;-66
2023/01/30 12:52:39;;;;;;;;;;;5.90;99.90;;;;;;5144907;28;20045;-66
2023/01/30 12:55:34;;;;;;;1.10;1.00;;;5.80;99.90;;;;;;5133852;28;19918;-68
2023/01/30 12:58:19;;;;;;;1.40;1.20;;;5.80;99.90;;;;;;5112813;28;20042;-67
2023/01/30 13:01:05;;;;;;;1.30;1.10;;;5.70;99.90;;;;;;5110876;28;20048;-66
2023/01/30 13:03:52;;;;;;;4.35;1.25;;;5.70;99.90;;;;;;5144462;28;20597;-65
2023/01/30 13:06:32;;;;;;;1.05;1.00;;;5.50;99.90;;;;;;5135039;28;20054;-67
2023/01/30 13:09:10;;;;;;;1.88;1.60;;;5.40;99.90;;;;;;5156230;28;20027;-68
2023/01/30 13:11:54;;;;;;;1.65;1.30;;;5.20;99.90;;;;;;5142511;28;20261;-66
2023/01/30 13:14:40;;;;;;;1.70;1.20;;;5.10;99.90;;;;;;5131068;28;20035;-66
2023/01/30 13:17:30;;;;;;;1.55;1.30;;;4.90;1.00;;;;;;5121683;28;20056;-67
2023/01/30 13:20:17;;;;;;;1.38;1.27;;;4.70;1.00;;;;;;5096042;28;20035;-67
2023/01/30 13:23:00;;;;;;;5.07;1.55;;;4.50;1.00;;;;;;5142604;28;20387;-68
2023/01/30 13:25:52;;;;;;;2.58;1.65;;;4.30;1.00;;;;;;5114664;28;20042;-69
2023/01/30 13:28:28;;;;;;;2.90;1.77;;;4.10;99.90;;;;;;5131132;28;20363;-68
2023/01/30 13:31:03;;;;;;;2.20;1.60;;;3.90;99.90;;;;;;5147186;28;20036;-69
2023/01/30 13:33:42;;;;;;;2.05;1.65;;;3.80;99.90;;;;;;5104453;28;20058;-68
2023/01/30 13:36:24;;;;;;;6.18;1.67;;;3.70;99.90;;;;;;5136045;28;20039;-67
2023/01/30 13:39:01;;;;;;;3.50;2.30;;;3.70;99.90;;;;;;5122577;28;20030;-69
2023/01/30 13:41:43;;;;;;;6.22;1.55;;;3.60;99.90;;;;;;5116639;28;20506;-67
2023/01/30 13:44:23;;;;;;;2.45;1.98;;;3.40;99.90;;;;;;5107754;28;20223;-69
2023/01/30 13:46:56;;;;;;;5.38;2.45;;;3.20;99.90;;;;;;5113708;28;20503;-70